Time,TemperatureF,DewpointF,PressureIn,WindDirection,WindDirectionDegrees,WindSpeedMPH,WindSpeedGustMPH,Humidity,HourlyPrecipIn,Conditions,Clouds,dailyrainin,SolarRadiationWatts/m^2,SoftwareType,DateUTC
2013-07-28 00:02:00,62.0,60.0,-100.00,ESE,109,1.0,2.0,92,0.00,,,0.00,0.000000,,2013-07-28 04:02:00,
2013-07-28 00:10:00,60.0,58.0,-100.00,ESE,108,0.0,2.0,94,0.00,,,0.00,0.000000,,2013-07-28 04:10:00,
2013-07-28 00:32:00,60.0,58.0,-100.00,ESE,108,0.0,2.0,94,0.00,,,0.00,0.000000,,2013-07-28 04:32:00,
2013-07-28 00:43:00,60.0,58.0,-100.00,ESE,108,0.0,2.0,94,0.00,,,0.00,0.000000,,2013-07-28 04:43:00,
2013-07-28 00:53:00,60.0,58.0,-100.00,ESE,108,0.0,2.0,94,0.00,,,0.00,0.000000,,2013-07-28 04:53:00,
2013-07-28 01:02:00,60.0,58.0,-100.00,ESE,108,0.0,2.0,94,0.00,,,0.00,0.000000,,2013-07-28 05:02:00,
2013-07-28 01:10:00,58.0,56.0,-100.00,ENE,69,0.0,1.0,94,0.00,,,0.00,0.000000,,2013-07-28 05:10:00,
2013-07-28 01:32:00,58.0,56.0,-100.00,ENE,69,0.0,1.0,94,0.00,,,0.00,0.000000,,2013-07-28 05:32:00,
2013-07-28 01:43:00,58.0,56.0,-100.00,ENE,69,0.0,1.0,94,0.00,,,0.00,0.000000,,2013-07-28 05:43:00,
2013-07-28 01:53:00,58.0,56.0,-100.00,ENE,69,0.0,1.0,94,0.00,,,0.00,0.000000,,2013-07-28 05:53:00,
2013-07-28 02:02:00,58.0,56.0,-100.00,ENE,69,0.0,1.0,94,0.00,,,0.00,0.000000,,2013-07-28 06:02:00,
2013-07-28 02:10:00,55.0,54.0,-100.00,East,81,1.0,3.0,95,0.00,,,0.00,0.000000,,2013-07-28 06:10:00,
2013-07-28 02:43:00,55.0,54.0,-100.00,East,81,1.0,3.0,95,0.00,,,0.00,0.000000,,2013-07-28 06:43:00,
2013-07-28 02:53:00,55.0,54.0,-100.00,East,81,1.0,3.0,95,0.00,,,0.00,0.000000,,2013-07-28 06:53:00,
2013-07-28 03:02:00,55.0,54.0,-100.00,East,81,1.0,3.0,95,0.00,,,0.00,0.000000,,2013-07-28 07:02:00,
2013-07-28 03:10:00,54.0,53.0,-100.00,SSE,152,0.0,2.0,96,0.00,,,0.00,0.000000,,2013-07-28 07:10:00,
2013-07-28 03:43:00,54.0,53.0,-100.00,SSE,152,0.0,2.0,96,0.00,,,0.00,0.000000,,2013-07-28 07:43:00,
2013-07-28 03:53:00,54.0,53.0,-100.00,SSE,152,0.0,2.0,96,0.00,,,0.00,0.000000,,2013-07-28 07:53:00,
2013-07-28 04:02:00,54.0,53.0,-100.00,SSE,152,0.0,2.0,96,0.00,,,0.00,0.000000,,2013-07-28 08:02:00,
2013-07-28 04:10:00,54.0,53.0,-100.00,NE,45,0.0,2.0,96,0.00,,,0.00,0.000000,,2013-07-28 08:10:00,
2013-07-28 04:43:00,54.0,53.0,-100.00,NE,45,0.0,2.0,96,0.00,,,0.00,0.000000,,2013-07-28 08:43:00,
2013-07-28 04:53:00,54.0,53.0,-100.00,NE,45,0.0,2.0,96,0.00,,,0.00,0.000000,,2013-07-28 08:53:00,
2013-07-28 05:02:00,54.0,53.0,-100.00,NE,45,0.0,2.0,96,0.00,,,0.00,0.000000,,2013-07-28 09:02:00,
2013-07-28 05:10:00,53.0,52.0,-100.00,ESE,121,0.0,3.0,96,0.00,,,0.00,0.000000,,2013-07-28 09:10:00,
2013-07-28 05:43:00,53.0,52.0,-100.00,ESE,121,0.0,3.0,96,0.00,,,0.00,0.000000,,2013-07-28 09:43:00,
2013-07-28 05:53:00,53.0,52.0,-100.00,ESE,121,0.0,3.0,96,0.00,,,0.00,0.000000,,2013-07-28 09:53:00,
2013-07-28 06:02:00,53.0,52.0,-100.00,ESE,121,0.0,3.0,96,0.00,,,0.00,0.000000,,2013-07-28 10:02:00,
2013-07-28 06:10:00,53.0,52.0,-100.00,ENE,75,1.0,3.0,96,0.00,,,0.00,8.000000,,2013-07-28 10:10:00,
2013-07-28 06:33:00,53.0,52.0,-100.00,ENE,75,1.0,3.0,96,0.00,,,0.00,8.000000,,2013-07-28 10:33:00,
2013-07-28 06:42:00,53.0,52.0,-100.00,ENE,75,1.0,3.0,96,0.00,,,0.00,8.000000,,2013-07-28 10:42:00,
2013-07-28 06:53:00,53.0,52.0,-100.00,ENE,75,1.0,3.0,96,0.00,,,0.00,8.000000,,2013-07-28 10:53:00,
2013-07-28 07:02:00,53.0,52.0,-100.00,ENE,75,1.0,3.0,96,0.00,,,0.00,8.000000,,2013-07-28 11:02:00,
2013-07-28 07:10:00,58.0,57.0,-100.00,ESE,107,1.0,2.0,96,0.00,,,0.00,65.000000,,2013-07-28 11:10:00,
2013-07-28 07:33:00,58.0,57.0,-100.00,ESE,107,1.0,2.0,96,0.00,,,0.00,65.000000,,2013-07-28 11:33:00,
2013-07-28 07:43:00,58.0,57.0,-100.00,ESE,107,1.0,2.0,96,0.00,,,0.00,65.000000,,2013-07-28 11:43:00,
2013-07-28 07:54:00,58.0,57.0,-100.00,ESE,107,1.0,2.0,96,0.00,,,0.00,65.000000,,2013-07-28 11:54:00,
2013-07-28 08:03:00,58.0,57.0,-100.00,ESE,107,1.0,2.0,96,0.00,,,0.00,65.000000,,2013-07-28 12:03:00,
2013-07-28 08:10:00,65.0,61.0,-100.00,West,262,1.0,3.0,88,0.00,,,0.00,133.000000,,2013-07-28 12:10:00,
2013-07-28 08:43:00,65.0,61.0,-100.00,West,262,1.0,3.0,88,0.00,,,0.00,133.000000,,2013-07-28 12:43:00,
2013-07-28 08:53:00,65.0,61.0,-100.00,West,262,1.0,3.0,88,0.00,,,0.00,133.000000,,2013-07-28 12:53:00,
2013-07-28 09:02:00,65.0,61.0,-100.00,West,262,1.0,3.0,88,0.00,,,0.00,133.000000,,2013-07-28 13:02:00,
2013-07-28 09:10:00,67.0,61.0,-100.00,SW,223,1.0,3.0,80,0.00,,,0.00,164.000000,,2013-07-28 13:10:00,
2013-07-28 09:43:00,67.0,61.0,-100.00,SW,223,1.0,3.0,80,0.00,,,0.00,164.000000,,2013-07-28 13:43:00,
2013-07-28 09:53:00,67.0,61.0,-100.00,SW,223,1.0,3.0,80,0.00,,,0.00,164.000000,,2013-07-28 13:53:00,
2013-07-28 10:02:00,67.0,61.0,-100.00,SW,223,1.0,3.0,80,0.00,,,0.00,164.000000,,2013-07-28 14:02:00,
2013-07-28 10:10:00,73.0,63.0,-100.00,West,280,3.0,5.0,71,0.00,,,0.00,349.000000,,2013-07-28 14:10:00,
2013-07-28 10:43:00,73.0,63.0,-100.00,West,280,3.0,5.0,71,0.00,,,0.00,349.000000,,2013-07-28 14:43:00,
2013-07-28 10:53:00,73.0,63.0,-100.00,West,280,3.0,5.0,71,0.00,,,0.00,349.000000,,2013-07-28 14:53:00,
2013-07-28 11:03:00,73.0,63.0,-100.00,West,280,3.0,5.0,71,0.00,,,0.00,349.000000,,2013-07-28 15:03:00,
2013-07-28 11:10:00,75.0,60.0,-100.00,WSW,243,3.0,5.0,60,0.00,,,0.00,326.000000,,2013-07-28 15:10:00,
2013-07-28 11:43:00,75.0,60.0,-100.00,WSW,243,3.0,5.0,60,0.00,,,0.00,326.000000,,2013-07-28 15:43:00,
2013-07-28 11:53:00,75.0,60.0,-100.00,WSW,243,3.0,5.0,60,0.00,,,0.00,326.000000,,2013-07-28 15:53:00,
2013-07-28 12:03:00,75.0,60.0,-100.00,WSW,243,3.0,5.0,60,0.00,,,0.00,326.000000,,2013-07-28 16:03:00,
2013-07-28 12:10:00,79.0,64.0,-100.00,WSW,241,2.0,4.0,60,0.00,,,0.00,356.000000,,2013-07-28 16:10:00,
2013-07-28 12:33:00,79.0,64.0,-100.00,WSW,241,2.0,4.0,60,0.00,,,0.00,356.000000,,2013-07-28 16:33:00,
2013-07-28 12:43:00,79.0,64.0,-100.00,WSW,241,2.0,4.0,60,0.00,,,0.00,356.000000,,2013-07-28 16:43:00,
2013-07-28 12:53:00,79.0,64.0,-100.00,WSW,241,2.0,4.0,60,0.00,,,0.00,356.000000,,2013-07-28 16:53:00,
2013-07-28 13:02:00,79.0,64.0,-100.00,WSW,241,2.0,4.0,60,0.00,,,0.00,356.000000,,2013-07-28 17:02:00,
2013-07-28 13:10:00,81.0,58.0,-100.00,South,187,2.0,6.0,45,0.00,,,0.00,608.000000,,2013-07-28 17:10:00,
2013-07-28 13:33:00,81.0,58.0,-100.00,South,187,2.0,6.0,45,0.00,,,0.00,608.000000,,2013-07-28 17:33:00,
2013-07-28 13:43:00,81.0,58.0,-100.00,South,187,2.0,6.0,45,0.00,,,0.00,608.000000,,2013-07-28 17:43:00,
2013-07-28 13:53:00,81.0,58.0,-100.00,South,187,2.0,6.0,45,0.00,,,0.00,608.000000,,2013-07-28 17:53:00,
2013-07-28 14:03:00,81.0,58.0,-100.00,South,187,2.0,6.0,45,0.00,,,0.00,608.000000,,2013-07-28 18:03:00,
2013-07-28 14:10:00,83.0,61.0,-100.00,West,268,2.0,8.0,48,0.00,,,0.00,441.000000,,2013-07-28 18:10:00,
2013-07-28 14:43:00,83.0,61.0,-100.00,West,268,2.0,8.0,48,0.00,,,0.00,441.000000,,2013-07-28 18:43:00,
2013-07-28 14:52:00,83.0,61.0,-100.00,West,268,2.0,8.0,48,0.00,,,0.00,441.000000,,2013-07-28 18:52:00,
2013-07-28 15:03:00,83.0,61.0,-100.00,West,268,2.0,8.0,48,0.00,,,0.00,441.000000,,2013-07-28 19:03:00,
2013-07-28 15:10:00,81.0,59.0,-100.00,WSW,250,3.0,7.0,47,0.00,,,0.00,365.000000,,2013-07-28 19:10:00,
2013-07-28 15:43:00,81.0,59.0,-100.00,WSW,250,3.0,7.0,47,0.00,,,0.00,365.000000,,2013-07-28 19:43:00,
2013-07-28 15:53:00,81.0,59.0,-100.00,WSW,250,3.0,7.0,47,0.00,,,0.00,365.000000,,2013-07-28 19:53:00,
2013-07-28 16:03:00,81.0,59.0,-100.00,WSW,250,3.0,7.0,47,0.00,,,0.00,365.000000,,2013-07-28 20:03:00,
2013-07-28 16:10:00,79.0,63.0,-100.00,East,79,2.0,6.0,58,0.00,,,0.00,219.000000,,2013-07-28 20:10:00,
2013-07-28 16:33:00,79.0,63.0,-100.00,East,79,2.0,6.0,58,0.00,,,0.00,219.000000,,2013-07-28 20:33:00,
2013-07-28 16:43:00,79.0,63.0,-100.00,East,79,2.0,6.0,58,0.00,,,0.00,219.000000,,2013-07-28 20:43:00,
2013-07-28 16:53:00,79.0,63.0,-100.00,East,79,2.0,6.0,58,0.00,,,0.00,219.000000,,2013-07-28 20:53:00,
2013-07-28 17:03:00,79.0,63.0,-100.00,East,79,2.0,6.0,58,0.00,,,0.00,219.000000,,2013-07-28 21:03:00,
2013-07-28 17:10:00,77.0,63.0,-100.00,NE,48,3.0,7.0,62,0.00,,,0.00,100.000000,,2013-07-28 21:10:00,
2013-07-28 17:44:00,77.0,63.0,-100.00,NE,48,3.0,7.0,62,0.00,,,0.00,100.000000,,2013-07-28 21:44:00,
2013-07-28 17:52:00,77.0,63.0,-100.00,NE,48,3.0,7.0,62,0.00,,,0.00,100.000000,,2013-07-28 21:52:00,
2013-07-28 18:02:00,77.0,63.0,-100.00,NE,48,3.0,7.0,62,0.00,,,0.00,100.000000,,2013-07-28 22:02:00,
2013-07-28 18:10:00,75.0,62.0,-100.00,ENE,73,2.0,7.0,64,0.00,,,-99.99,71.000000,,2013-07-28 22:10:00,
2013-07-28 18:32:00,75.0,62.0,-100.00,ENE,73,2.0,7.0,64,0.00,,,-99.99,71.000000,,2013-07-28 22:32:00,
2013-07-28 18:43:00,75.0,62.0,-100.00,ENE,73,2.0,7.0,64,0.00,,,-99.99,71.000000,,2013-07-28 22:43:00,
2013-07-28 18:52:00,75.0,62.0,-100.00,ENE,73,2.0,7.0,64,0.00,,,-99.99,71.000000,,2013-07-28 22:52:00,
2013-07-28 19:03:00,75.0,62.0,-100.00,ENE,73,2.0,7.0,64,0.00,,,-99.99,71.000000,,2013-07-28 23:03:00,
2013-07-28 19:10:00,74.0,62.0,-100.00,WSW,244,2.0,7.0,66,0.00,,,0.00,34.000000,,2013-07-28 23:10:00,
2013-07-28 19:33:00,74.0,62.0,-100.00,WSW,244,2.0,7.0,66,0.00,,,0.00,34.000000,,2013-07-28 23:33:00,
2013-07-28 19:43:00,74.0,62.0,-100.00,WSW,244,2.0,7.0,66,0.00,,,0.00,34.000000,,2013-07-28 23:43:00,
2013-07-28 19:53:00,74.0,62.0,-100.00,WSW,244,2.0,7.0,66,0.00,,,0.00,34.000000,,2013-07-28 23:53:00,
2013-07-28 20:03:00,74.0,62.0,-100.00,WSW,244,2.0,7.0,66,0.00,,,0.00,34.000000,,2013-07-29 00:03:00,
2013-07-28 20:10:00,69.0,64.0,-100.00,ENE,77,1.0,6.0,83,0.01,,,-99.99,3.000000,,2013-07-29 00:10:00,
2013-07-28 20:43:00,69.0,64.0,-100.00,ENE,77,1.0,6.0,83,0.01,,,-99.99,3.000000,,2013-07-29 00:43:00,
2013-07-28 20:52:00,69.0,64.0,-100.00,ENE,77,1.0,6.0,83,0.01,,,-99.99,3.000000,,2013-07-29 00:52:00,
2013-07-28 21:02:00,69.0,64.0,-100.00,ENE,77,1.0,6.0,83,0.01,,,-99.99,3.000000,,2013-07-29 01:02:00,
2013-07-28 21:10:00,67.0,65.0,-100.00,NNE,22,0.0,2.0,94,0.00,,,0.01,0.000000,,2013-07-29 01:10:00,
2013-07-28 21:47:00,67.0,65.0,-100.00,NNE,22,0.0,2.0,94,0.00,,,0.01,0.000000,,2013-07-29 01:47:00,
2013-07-28 22:01:00,67.0,65.0,-100.00,NNE,22,0.0,2.0,94,0.00,,,0.01,0.000000,,2013-07-29 02:01:00,
2013-07-28 22:07:00,67.0,65.0,-100.00,NNE,22,0.0,2.0,94,0.00,,,0.01,0.000000,,2013-07-29 02:07:00,
2013-07-28 22:10:00,67.0,65.0,-100.00,NW,310,0.0,2.0,94,0.00,,,0.01,0.000000,,2013-07-29 02:10:00,
2013-07-28 22:40:00,67.0,65.0,-100.00,NW,310,0.0,2.0,94,0.00,,,0.01,0.000000,,2013-07-29 02:40:00,
2013-07-28 22:50:00,67.0,65.0,-100.00,NW,310,0.0,2.0,94,0.00,,,0.01,0.000000,,2013-07-29 02:50:00,
2013-07-28 23:00:00,67.0,65.0,-100.00,NW,310,0.0,2.0,94,0.00,,,0.01,0.000000,,2013-07-29 03:00:00,
2013-07-28 23:05:00,67.0,65.0,-100.00,NW,310,0.0,2.0,94,0.00,,,0.01,0.000000,,2013-07-29 03:05:00,
2013-07-28 23:10:00,67.0,66.0,-100.00,SE,136,1.0,2.0,95,0.00,,,0.01,0.000000,,2013-07-29 03:10:00,
2013-07-28 23:50:00,67.0,66.0,-100.00,SE,136,1.0,2.0,95,0.00,,,0.01,0.000000,,2013-07-29 03:50:00,
2013-07-28 23:58:00,67.0,66.0,-100.00,SE,136,1.0,2.0,95,0.00,,,0.01,0.000000,,2013-07-29 03:58:00,